ADDS METAR Data INFO
IDs: Format: Raw Decoded Include TAF

Data at: 1133 UTC 29 May 2017

KINK 291053Z AUTO 36005KT 10SM CLR 14/09 A3011 RMK AO2 SLP157 T01440094 $
KINK 290953Z AUTO 02005KT 10SM CLR 15/09 A3011 RMK AO2 SLP154 T01500089 $
KINK 290853Z AUTO 10005KT 10SM CLR 17/09 A3010 RMK AO2 SLP150 T01670094 55000 $
KINK 290753Z AUTO 10005KT 10SM CLR 18/10 A3009 RMK AO2 SLP146 T01830100 $
KINK 290653Z AUTO 12007KT 10SM CLR 20/10 A3010 RMK AO2 SLP150 T02000100 $
KINK 290553Z AUTO 09006KT 10SM CLR 19/09 A3010 RMK AO2 SLP151 T01940089 10311 20194 403220172 53016 $
KINK 290453Z AUTO 10004KT 10SM CLR 21/08 A3006 RMK AO2 SLP138 T02110083 $
KINK 290353Z AUTO 10006KT 10SM CLR 24/08 A3005 RMK AO2 SLP134 T02390078 $
KINK 290253Z AUTO 11011KT 10SM CLR 25/08 A3005 RMK AO2 SLP134 T02500083 51020 $
KINK 290153Z AUTO 11014KT 10SM CLR 27/08 A3003 RMK AO2 SLP128 T02720083 $
KINK 290053Z AUTO 10011KT 10SM CLR 29/07 A3000 RMK AO2 SLP118 T02890072 $
KINK 282353Z AUTO 06011G18KT 10SM CLR 31/06 A2998 RMK AO2 WSHFT 2320 SLP110 T03110061 10322 20272 56017 $
KINK 282340Z AUTO 07007G17KT 10SM CLR 31/07 A2998 RMK AO2 WSHFT 2320 T03110067 $
KINK 282253Z AUTO 10009G19KT 10SM CLR 31/07 A2999 RMK AO2 SLP113 T03110067
KINK 282153Z AUTO 07015G21KT 10SM CLR 32/07 A3002 RMK AO2 SLP117 T03170067
KINK 282053Z AUTO 08013G26KT 10SM CLR 31/07 A3004 RMK AO2 PK WND 05027/2020 SLP123 T03110067 56023
KINK 281953Z AUTO 05013G21KT 10SM CLR 31/07 A3006 RMK AO2 SLP128 T03060067
KINK 281853Z AUTO 03012G18KT 10SM CLR 29/07 A3008 RMK AO2 SLP139 T02940072
KINK 281753Z AUTO 03013G22KT 10SM CLR 27/08 A3011 RMK AO2 LTG DSNT E SLP149 T02720078 10272 20172 58013
KINK 281653Z AUTO 04015G20KT 10SM CLR 26/09 A3013 RMK AO2 SLP156 T02560089
KINK 281553Z AUTO 03013G20KT 10SM CLR 23/09 A3014 RMK AO2 SLP165 T02330089
KINK 281453Z AUTO 03015KT 10SM CLR 21/09 A3015 RMK AO2 SLP166 T02060094 51042
KINK 281353Z AUTO 01014KT 10SM CLR 19/09 A3013 RMK AO2 PK WND 01027/1255 SLP155 T01940094
KINK 281253Z AUTO 02018G28KT 10SM CLR 18/09 A3006 RMK AO2 PK WND 02030/1240 SLP131 T01780089
KINK 281153Z AUTO 01019G27KT 10SM CLR 17/09 A3002 RMK AO2 PK WND 02032/1133 SLP117 T01720089 10283 20172 51035
KINK 281053Z AUTO 01019G28KT 9SM CLR 19/11 A2999 RMK AO2 PK WND 01029/0955 SLP105 T01890106
KINK 280953Z AUTO 01023G29KT 8SM FEW110 23/13 A2996 RMK AO2 PK WND 01033/0901 LTG DSNT S TSB18E33 SLP091 T02280128
KINK 280937Z AUTO 01019G27KT 10SM SCT110 23/09 A2994 RMK AO2 PK WND 01033/0901 TSB18E33 T02330094
KINK 280924Z AUTO 03019G31KT 10SM TS CLR 24/06 A2995 RMK AO2 PK WND 01033/0901 TSB18 T02390056
KINK 280853Z AUTO 01005KT 10SM FEW110 24/M03 A2991 RMK AO2 SLP072 T02391033 51007
KINK 280753Z AUTO 10003KT 10SM CLR 28/M10 A2990 RMK AO2 LTG DSNT NE SLP070 T02781100
KINK 280653Z AUTO 00000KT 10SM CLR 26/M08 A2989 RMK AO2 SLP067 T02611078
KINK 280553Z AUTO 32007KT 10SM CLR 27/M08 A2988 RMK AO2 SLP064 T02671078 10372 20250 403830161 50007
KINK 280453Z AUTO 32008KT 10SM CLR 27/M06 A2989 RMK AO2 SLP067 T02671061
KINK 280353Z AUTO 32009KT 10SM CLR 27/M06 A2988 RMK AO2 SLP065 T02671061
KINK 280253Z AUTO 30010KT 10SM CLR 31/M07 A2986 RMK AO2 SLP057 T03061067 53012
KINK 280153Z AUTO 29016KT 10SM CLR 34/M06 A2983 RMK AO2 PK WND 28027/0108 SLP049 T03441056
KINK 280053Z AUTO 29018G27KT 10SM CLR 36/M05 A2982 RMK AO2 PK WND 28028/0041 SLP047 T03561050
KINK 272353Z AUTO 28017G22KT 10SM CLR 37/M04 A2982 RMK AO2 PK WND 29030/2337 SLP049 T03671044 10383 20350 56011


Page loaded:  11:33 UTC  |   04:33 AM Pacific  |   05:33 AM Mountain  |   06:33 AM Central  |   07:33 AM Eastern

 

ADVISORIES

FORECASTS

FORECASTS

OBSERVATIONS

USER TOOLS

ABOUT US